sensor_id;sensor_type;location;lat;lon;timestamp;pressure;altitude;pressure_sealevel;temperature;humidity
50093;BME280;35974;47.752;10.290;2022-11-09T00:00:44;93669.53;;;3.46;93.05
50093;BME280;35974;47.752;10.290;2022-11-09T00:03:11;93674.41;;;3.41;93.52
50093;BME280;35974;47.752;10.290;2022-11-09T00:05:38;93640.50;;;3.19;93.31
50093;BME280;35974;47.752;10.290;2022-11-09T00:08:06;93656.97;;;3.26;93.78
50093;BME280;35974;47.752;10.290;2022-11-09T00:10:33;93666.00;;;3.39;93.49
50093;BME280;35974;47.752;10.290;2022-11-09T00:13:01;93659.84;;;3.48;92.61
50093;BME280;35974;47.752;10.290;2022-11-09T00:15:27;93640.09;;;3.55;92.00
50093;BME280;35974;47.752;10.290;2022-11-09T00:17:54;93652.41;;;3.93;90.04
50093;BME280;35974;47.752;10.290;2022-11-09T00:20:20;93663.03;;;3.66;91.50
50093;BME280;35974;47.752;10.290;2022-11-09T00:22:48;93656.91;;;3.67;91.83
50093;BME280;35974;47.752;10.290;2022-11-09T00:25:20;93644.94;;;3.58;91.88
50093;BME280;35974;47.752;10.290;2022-11-09T00:27:47;93651.69;;;3.76;90.48
50093;BME280;35974;47.752;10.290;2022-11-09T00:30:13;93646.84;;;3.73;90.29
50093;BME280;35974;47.752;10.290;2022-11-09T00:32:40;93656.25;;;3.57;91.24
50093;BME280;35974;47.752;10.290;2022-11-09T00:35:07;93648.56;;;3.24;90.71
50093;BME280;35974;47.752;10.290;2022-11-09T00:37:34;93668.28;;;3.34;90.87
50093;BME280;35974;47.752;10.290;2022-11-09T00:40:00;93672.84;;;3.23;91.14
50093;BME280;35974;47.752;10.290;2022-11-09T00:42:27;93675.75;;;3.28;90.75
50093;BME280;35974;47.752;10.290;2022-11-09T00:44:53;93651.19;;;3.00;92.17
50093;BME280;35974;47.752;10.290;2022-11-09T00:47:20;93627.97;;;2.75;91.90
50093;BME280;35974;47.752;10.290;2022-11-09T00:49:50;93667.19;;;2.87;92.01
50093;BME280;35974;47.752;10.290;2022-11-09T00:52:17;93660.25;;;2.79;91.95
50093;BME280;35974;47.752;10.290;2022-11-09T00:54:43;93661.88;;;2.80;91.69
50093;BME280;35974;47.752;10.290;2022-11-09T00:57:11;93667.34;;;2.77;91.99
50093;BME280;35974;47.752;10.290;2022-11-09T00:59:37;93664.78;;;2.69;92.62
50093;BME280;35974;47.752;10.290;2022-11-09T01:02:04;93654.44;;;2.69;93.42
50093;BME280;35974;47.752;10.290;2022-11-09T01:04:30;93656.38;;;2.67;92.83
50093;BME280;35974;47.752;10.290;2022-11-09T01:06:57;93638.63;;;2.55;93.43
50093;BME280;35974;47.752;10.290;2022-11-09T01:09:23;93644.41;;;2.66;93.74
50093;BME280;35974;47.752;10.290;2022-11-09T01:11:50;93650.22;;;2.76;92.57
50093;BME280;35974;47.752;10.290;2022-11-09T01:14:16;93652.16;;;2.74;91.95
50093;BME280;35974;47.752;10.290;2022-11-09T01:16:42;93640.34;;;2.47;92.15
50093;BME280;35974;47.752;10.290;2022-11-09T01:19:10;93649.91;;;2.46;92.09
50093;BME280;35974;47.752;10.290;2022-11-09T01:21:37;93660.56;;;2.60;92.09
50093;BME280;35974;47.752;10.290;2022-11-09T01:24:04;93647.63;;;2.51;92.52
50093;BME280;35974;47.752;10.290;2022-11-09T01:26:36;93654.44;;;2.52;92.42
50093;BME280;35974;47.752;10.290;2022-11-09T01:29:02;93640.69;;;2.44;92.50
50093;BME280;35974;47.752;10.290;2022-11-09T01:31:29;93631.81;;;2.38;93.02
50093;BME280;35974;47.752;10.290;2022-11-09T01:33:55;93631.19;;;2.44;93.07
50093;BME280;35974;47.752;10.290;2022-11-09T01:36:23;93618.25;;;2.36;92.92
50093;BME280;35974;47.752;10.290;2022-11-09T01:38:50;93642.63;;;2.58;93.16
50093;BME280;35974;47.752;10.290;2022-11-09T01:41:20;93650.72;;;2.71;92.59
50093;BME280;35974;47.752;10.290;2022-11-09T01:46:52;93645.41;;;2.89;92.72
50093;BME280;35974;47.752;10.290;2022-11-09T01:49:32;93632.41;;;3.30;91.46
50093;BME280;35974;47.752;10.290;2022-11-09T01:52:11;93606.31;;;2.92;91.71
50093;BME280;35974;47.752;10.290;2022-11-09T01:54:42;93605.66;;;2.90;92.52
50093;BME280;35974;47.752;10.290;2022-11-09T01:57:13;93630.50;;;3.16;92.53
50093;BME280;35974;47.752;10.290;2022-11-09T01:59:46;93627.28;;;3.14;92.66
50093;BME280;35974;47.752;10.290;2022-11-09T02:02:15;93607.91;;;3.02;92.28
50093;BME280;35974;47.752;10.290;2022-11-09T02:04:49;93599.00;;;3.04;91.55
50093;BME280;35974;47.752;10.290;2022-11-09T02:07:18;93631.16;;;3.02;91.43
50093;BME280;35974;47.752;10.290;2022-11-09T02:10:02;93619.22;;;2.92;92.39
50093;BME280;35974;47.752;10.290;2022-11-09T02:12:32;93610.19;;;2.80;92.29
50093;BME280;35974;47.752;10.290;2022-11-09T02:15:02;93629.91;;;2.81;91.81
50093;BME280;35974;47.752;10.290;2022-11-09T02:17:29;93607.94;;;2.69;92.60
50093;BME280;35974;47.752;10.290;2022-11-09T02:19:59;93597.13;;;2.65;92.49
50093;BME280;35974;47.752;10.290;2022-11-09T02:22:25;93604.03;;;2.56;92.33
50093;BME280;35974;47.752;10.290;2022-11-09T02:24:52;93547.41;;;2.22;92.59
50093;BME280;35974;47.752;10.290;2022-11-09T02:27:22;93597.59;;;2.52;92.87
50093;BME280;35974;47.752;10.290;2022-11-09T02:29:49;93618.25;;;2.85;91.41
50093;BME280;35974;47.752;10.290;2022-11-09T02:32:21;93618.56;;;2.82;91.87
50093;BME280;35974;47.752;10.290;2022-11-09T02:34:49;93587.59;;;2.49;92.38
50093;BME280;35974;47.752;10.290;2022-11-09T02:37:39;93626.19;;;2.67;92.74
50093;BME280;35974;47.752;10.290;2022-11-09T02:40:12;93596.47;;;2.55;92.87
50093;BME280;35974;47.752;10.290;2022-11-09T02:42:39;93583.38;;;2.40;92.89
50093;BME280;35974;47.752;10.290;2022-11-09T02:45:06;93605.66;;;2.58;93.20
50093;BME280;35974;47.752;10.290;2022-11-09T02:47:33;93595.03;;;2.61;91.99
50093;BME280;35974;47.752;10.290;2022-11-09T02:49:59;93590.50;;;2.54;92.96
50093;BME280;35974;47.752;10.290;2022-11-09T02:52:26;93617.31;;;2.62;93.13
50093;BME280;35974;47.752;10.290;2022-11-09T02:54:53;93594.03;;;2.53;93.60
50093;BME280;35974;47.752;10.290;2022-11-09T02:57:19;93606.63;;;2.65;93.66
50093;BME280;35974;47.752;10.290;2022-11-09T02:59:46;93607.94;;;2.52;93.71
50093;BME280;35974;47.752;10.290;2022-11-09T03:02:12;93607.63;;;2.55;93.86
50093;BME280;35974;47.752;10.290;2022-11-09T03:04:39;93592.44;;;2.52;93.69
50093;BME280;35974;47.752;10.290;2022-11-09T03:07:06;93590.00;;;2.51;93.40
50093;BME280;35974;47.752;10.290;2022-11-09T03:09:33;93602.13;;;2.59;93.40
50093;BME280;35974;47.752;10.290;2022-11-09T03:11:59;93575.63;;;2.48;93.40
50093;BME280;35974;47.752;10.290;2022-11-09T03:14:46;93570.16;;;2.35;93.99
50093;BME280;35974;47.752;10.290;2022-11-09T03:17:12;93567.25;;;2.54;93.55
50093;BME280;35974;47.752;10.290;2022-11-09T03:19:39;93581.78;;;2.55;92.81
50093;BME280;35974;47.752;10.290;2022-11-09T03:22:05;93590.50;;;2.54;93.74
50093;BME280;35974;47.752;10.290;2022-11-09T03:24:32;93579.84;;;2.49;93.92
50093;BME280;35974;47.752;10.290;2022-11-09T03:26:58;93587.28;;;2.52;94.21
50093;BME280;35974;47.752;10.290;2022-11-09T03:29:26;93588.38;;;2.50;94.57
50093;BME280;35974;47.752;10.290;2022-11-09T03:31:52;93589.84;;;2.52;94.26
50093;BME280;35974;47.752;10.290;2022-11-09T03:34:18;93577.75;;;2.53;93.99
50093;BME280;35974;47.752;10.290;2022-11-09T03:36:45;93588.22;;;2.51;93.72
50093;BME280;35974;47.752;10.290;2022-11-09T03:39:11;93595.34;;;2.58;93.61
50093;BME280;35974;47.752;10.290;2022-11-09T03:41:38;93577.91;;;2.43;93.60
50093;BME280;35974;47.752;10.290;2022-11-09T03:44:04;93587.59;;;2.49;93.72
50093;BME280;35974;47.752;10.290;2022-11-09T03:46:31;93592.75;;;2.49;93.44
50093;BME280;35974;47.752;10.290;2022-11-09T03:48:57;93577.59;;;2.46;93.96
50093;BME280;35974;47.752;10.290;2022-11-09T03:51:24;93579.22;;;2.47;93.26
50093;BME280;35974;47.752;10.290;2022-11-09T03:53:50;93593.91;;;2.71;92.17
50093;BME280;35974;47.752;10.290;2022-11-09T03:56:17;93576.31;;;2.50;93.07
50093;BME280;35974;47.752;10.290;2022-11-09T03:58:43;93585.66;;;2.43;93.76
50093;BME280;35974;47.752;10.290;2022-11-09T04:01:10;93603.41;;;2.54;93.32
50093;BME280;35974;47.752;10.290;2022-11-09T04:03:43;93613.25;;;2.59;92.78
50093;BME280;35974;47.752;10.290;2022-11-09T04:06:10;93601.16;;;2.51;92.76
50093;BME280;35974;47.752;10.290;2022-11-09T04:08:36;93602.28;;;2.32;93.63
50093;BME280;35974;47.752;10.290;2022-11-09T04:11:02;93599.19;;;2.53;93.13
50093;BME280;35974;47.752;10.290;2022-11-09T04:13:29;93613.75;;;2.46;92.92
50093;BME280;35974;47.752;10.290;2022-11-09T04:15:55;93605.19;;;2.37;93.81
50093;BME280;35974;47.752;10.290;2022-11-09T04:18:22;93605.03;;;2.39;93.56
50093;BME280;35974;47.752;10.290;2022-11-09T04:20:48;93635.06;;;2.73;93.57
50093;BME280;35974;47.752;10.290;2022-11-09T04:23:14;93622.47;;;2.62;93.26
50093;BME280;35974;47.752;10.290;2022-11-09T04:25:42;93607.63;;;2.72;93.27
50093;BME280;35974;47.752;10.290;2022-11-09T04:28:10;93620.81;;;3.10;92.54
50093;BME280;35974;47.752;10.290;2022-11-09T04:30:37;93610.97;;;3.14;91.39
50093;BME280;35974;47.752;10.290;2022-11-09T04:33:04;93620.78;;;3.26;91.54
50093;BME280;35974;47.752;10.290;2022-11-09T04:35:32;93607.91;;;3.02;91.96
50093;BME280;35974;47.752;10.290;2022-11-09T04:38:05;93623.56;;;3.08;92.15
50093;BME280;35974;47.752;10.290;2022-11-09T04:40:33;93625.19;;;3.09;92.60
50093;BME280;35974;47.752;10.290;2022-11-09T04:43:01;93623.69;;;3.15;92.72
50093;BME280;35974;47.752;10.290;2022-11-09T04:45:28;93635.97;;;3.29;92.13
50093;BME280;35974;47.752;10.290;2022-11-09T04:47:59;93641.31;;;3.20;92.81
50093;BME280;35974;47.752;10.290;2022-11-09T04:50:27;93616.63;;;3.01;93.33
50093;BME280;35974;47.752;10.290;2022-11-09T04:52:54;93616.28;;;3.20;92.99
50093;BME280;35974;47.752;10.290;2022-11-09T04:55:21;93625.97;;;3.10;93.55
50093;BME280;35974;47.752;10.290;2022-11-09T04:57:47;93621.44;;;3.04;92.88
50093;BME280;35974;47.752;10.290;2022-11-09T05:00:14;93626.47;;;3.14;92.38
50093;BME280;35974;47.752;10.290;2022-11-09T05:02:42;93643.13;;;3.11;92.82
50093;BME280;35974;47.752;10.290;2022-11-09T05:05:09;93660.22;;;3.28;93.55
50093;BME280;35974;47.752;10.290;2022-11-09T05:07:36;93671.84;;;3.33;93.94
50093;BME280;35974;47.752;10.290;2022-11-09T05:10:02;93671.19;;;3.39;93.17
50093;BME280;35974;47.752;10.290;2022-11-09T05:12:29;93675.41;;;3.32;94.39
50093;BME280;35974;47.752;10.290;2022-11-09T05:14:55;93666.50;;;3.26;94.50
50093;BME280;35974;47.752;10.290;2022-11-09T05:17:22;93673.91;;;3.54;93.75
50093;BME280;35974;47.752;10.290;2022-11-09T05:19:55;93654.38;;;3.35;94.42
50093;BME280;35974;47.752;10.290;2022-11-09T05:22:22;93646.25;;;3.46;93.52
50093;BME280;35974;47.752;10.290;2022-11-09T05:25:07;93670.22;;;3.48;93.78
50093;BME280;35974;47.752;10.290;2022-11-09T05:27:34;93697.31;;;3.69;94.17
50093;BME280;35974;47.752;10.290;2022-11-09T05:30:01;93678.09;;;3.63;92.52
50093;BME280;35974;47.752;10.290;2022-11-09T05:32:27;93678.59;;;3.50;93.18
50093;BME280;35974;47.752;10.290;2022-11-09T05:34:54;93669.56;;;3.54;93.07
50093;BME280;35974;47.752;10.290;2022-11-09T05:37:20;93676.94;;;3.65;92.39
50093;BME280;35974;47.752;10.290;2022-11-09T05:39:47;93675.66;;;3.61;93.40
50093;BME280;35974;47.752;10.290;2022-11-09T05:42:14;93680.13;;;3.84;92.29
50093;BME280;35974;47.752;10.290;2022-11-09T05:44:40;93692.75;;;3.79;93.18
50093;BME280;35974;47.752;10.290;2022-11-09T05:47:06;93710.50;;;3.98;92.61
50093;BME280;35974;47.752;10.290;2022-11-09T05:49:33;93684.34;;;3.77;92.58
50093;BME280;35974;47.752;10.290;2022-11-09T05:51:59;93697.16;;;4.18;91.75
50093;BME280;35974;47.752;10.290;2022-11-09T05:54:26;93711.47;;;3.97;92.68
50093;BME280;35974;47.752;10.290;2022-11-09T05:56:52;93696.75;;;3.90;92.36
50093;BME280;35974;47.752;10.290;2022-11-09T05:59:19;93702.59;;;3.92;91.67
50093;BME280;35974;47.752;10.290;2022-11-09T06:01:45;93714.50;;;4.09;91.70
50093;BME280;35974;47.752;10.290;2022-11-09T06:04:15;93719.53;;;4.02;90.65
50093;BME280;35974;47.752;10.290;2022-11-09T06:06:42;93688.66;;;3.93;90.54
50093;BME280;35974;47.752;10.290;2022-11-09T06:09:08;93716.91;;;4.11;89.73
50093;BME280;35974;47.752;10.290;2022-11-09T06:11:35;93702.78;;;3.82;90.48
50093;BME280;35974;47.752;10.290;2022-11-09T06:14:01;93717.97;;;3.85;90.72
50093;BME280;35974;47.752;10.290;2022-11-09T06:16:28;93727.75;;;4.14;89.22
50093;BME280;35974;47.752;10.290;2022-11-09T06:18:55;93734.47;;;3.92;90.38
50093;BME280;35974;47.752;10.290;2022-11-09T06:21:22;93746.84;;;4.13;89.08
50093;BME280;35974;47.752;10.290;2022-11-09T06:23:48;93736.88;;;3.94;88.90
50093;BME280;35974;47.752;10.290;2022-11-09T06:26:15;93732.38;;;3.88;89.07
50093;BME280;35974;47.752;10.290;2022-11-09T06:28:41;93740.13;;;3.88;89.53
50093;BME280;35974;47.752;10.290;2022-11-09T06:31:11;93729.28;;;3.92;89.26
50093;BME280;35974;47.752;10.290;2022-11-09T06:33:38;93741.47;;;4.23;87.96
50093;BME280;35974;47.752;10.290;2022-11-09T06:36:04;93748.16;;;4.09;88.74
50093;BME280;35974;47.752;10.290;2022-11-09T06:38:31;93764.75;;;4.31;88.78
50093;BME280;35974;47.752;10.290;2022-11-09T06:40:58;93718.59;;;3.95;89.04
50093;BME280;35974;47.752;10.290;2022-11-09T06:43:26;93754.06;;;4.34;88.08
50093;BME280;35974;47.752;10.290;2022-11-09T06:45:52;93726.66;;;4.00;89.16
50093;BME280;35974;47.752;10.290;2022-11-09T06:48:19;93745.41;;;4.02;90.24
50093;BME280;35974;47.752;10.290;2022-11-09T06:50:46;93726.94;;;4.14;89.38
50093;BME280;35974;47.752;10.290;2022-11-09T06:53:14;93761.25;;;4.55;88.41
50093;BME280;35974;47.752;10.290;2022-11-09T06:55:41;93759.41;;;4.64;87.98
50093;BME280;35974;47.752;10.290;2022-11-09T06:58:15;93757.88;;;4.47;88.29
50093;BME280;35974;47.752;10.290;2022-11-09T07:00:42;93750.88;;;4.24;89.59
50093;BME280;35974;47.752;10.290;2022-11-09T07:03:13;93771.19;;;4.35;90.27
50093;BME280;35974;47.752;10.290;2022-11-09T07:05:40;93775.91;;;4.71;89.01
50093;BME280;35974;47.752;10.290;2022-11-09T07:08:06;93761.16;;;4.40;90.29
50093;BME280;35974;47.752;10.290;2022-11-09T07:10:33;93766.00;;;4.44;89.94
50093;BME280;35974;47.752;10.290;2022-11-09T07:12:59;93796.81;;;4.70;89.94
50093;BME280;35974;47.752;10.290;2022-11-09T07:15:28;93787.84;;;4.81;89.87
50093;BME280;35974;47.752;10.290;2022-11-09T07:17:56;93783.72;;;4.63;89.89
50093;BME280;35974;47.752;10.290;2022-11-09T07:20:23;93791.16;;;4.66;90.37
50093;BME280;35974;47.752;10.290;2022-11-09T07:22:50;93800.13;;;4.87;90.17
50093;BME280;35974;47.752;10.290;2022-11-09T07:25:17;93782.56;;;4.97;89.72
50093;BME280;35974;47.752;10.290;2022-11-09T07:27:45;93768.78;;;4.73;90.39
50093;BME280;35974;47.752;10.290;2022-11-09T07:30:12;93767.66;;;4.99;90.24
50093;BME280;35974;47.752;10.290;2022-11-09T07:32:39;93806.84;;;5.50;88.90
50093;BME280;35974;47.752;10.290;2022-11-09T07:35:26;93793.81;;;5.12;90.92
50093;BME280;35974;47.752;10.290;2022-11-09T07:37:52;93770.41;;;5.21;89.72
50093;BME280;35974;47.752;10.290;2022-11-09T07:40:19;93792.66;;;5.61;88.74
50093;BME280;35974;47.752;10.290;2022-11-09T07:42:45;93799.63;;;5.61;89.36
50093;BME280;35974;47.752;10.290;2022-11-09T07:45:12;93781.47;;;5.61;88.42
50093;BME280;35974;47.752;10.290;2022-11-09T07:47:38;93780.03;;;5.73;87.61
50093;BME280;35974;47.752;10.290;2022-11-09T07:50:05;93782.78;;;5.95;87.28
50093;BME280;35974;47.752;10.290;2022-11-09T07:52:31;93775.97;;;5.94;87.38
50093;BME280;35974;47.752;10.290;2022-11-09T07:54:58;93793.56;;;6.21;86.65
50093;BME280;35974;47.752;10.290;2022-11-09T07:57:24;93782.19;;;6.52;85.62
50093;BME280;35974;47.752;10.290;2022-11-09T07:59:51;93775.81;;;6.40;86.23
50093;BME280;35974;47.752;10.290;2022-11-09T08:02:18;93772.94;;;6.65;85.44
50093;BME280;35974;47.752;10.290;2022-11-09T08:04:45;93778.88;;;6.95;85.51
50093;BME280;35974;47.752;10.290;2022-11-09T08:07:11;93776.22;;;7.10;85.29
50093;BME280;35974;47.752;10.290;2022-11-09T08:09:38;93770.19;;;7.46;84.04
50093;BME280;35974;47.752;10.290;2022-11-09T08:12:04;93768.44;;;7.53;84.35
50093;BME280;35974;47.752;10.290;2022-11-09T08:14:31;93772.72;;;7.89;83.76
50093;BME280;35974;47.752;10.290;2022-11-09T08:16:58;93779.41;;;7.98;83.85
50093;BME280;35974;47.752;10.290;2022-11-09T08:19:24;93777.78;;;7.97;83.89
50093;BME280;35974;47.752;10.290;2022-11-09T08:21:51;93808.88;;;8.27;84.17
50093;BME280;35974;47.752;10.290;2022-11-09T08:24:22;93783.78;;;8.61;83.06
50093;BME280;35974;47.752;10.290;2022-11-09T08:26:49;93711.56;;;8.20;83.61
50093;BME280;35974;47.752;10.290;2022-11-09T08:29:15;93773.81;;;8.71;83.20
50093;BME280;35974;47.752;10.290;2022-11-09T08:31:42;93785.97;;;8.99;83.22
50093;BME280;35974;47.752;10.290;2022-11-09T08:34:12;93783.91;;;8.88;83.88
50093;BME280;35974;47.752;10.290;2022-11-09T08:36:39;93801.66;;;9.12;83.76
50093;BME280;35974;47.752;10.290;2022-11-09T08:39:06;93774.41;;;9.28;83.61
50093;BME280;35974;47.752;10.290;2022-11-09T08:41:33;93774.41;;;9.48;82.17
50093;BME280;35974;47.752;10.290;2022-11-09T08:44:00;93770.22;;;9.47;83.03
50093;BME280;35974;47.752;10.290;2022-11-09T08:46:27;93785.31;;;9.72;81.21
50093;BME280;35974;47.752;10.290;2022-11-09T08:48:53;93776.88;;;9.70;81.27
50093;BME280;35974;47.752;10.290;2022-11-09T08:51:19;93778.88;;;9.81;81.80
50093;BME280;35974;47.752;10.290;2022-11-09T08:53:47;93766.81;;;9.94;81.59
50093;BME280;35974;47.752;10.290;2022-11-09T08:56:13;93792.50;;;10.23;81.02
50093;BME280;35974;47.752;10.290;2022-11-09T08:58:44;93771.19;;;10.26;79.87
50093;BME280;35974;47.752;10.290;2022-11-09T09:01:11;93766.56;;;10.42;77.92
50093;BME280;35974;47.752;10.290;2022-11-09T09:03:42;93774.00;;;10.45;78.29
50093;BME280;35974;47.752;10.290;2022-11-09T09:06:09;93765.34;;;10.51;76.85
50093;BME280;35974;47.752;10.290;2022-11-09T09:08:35;93766.28;;;10.70;75.30
50093;BME280;35974;47.752;10.290;2022-11-09T09:11:05;93792.78;;;10.94;74.29
50093;BME280;35974;47.752;10.290;2022-11-09T09:13:32;93795.47;;;11.19;69.14
50093;BME280;35974;47.752;10.290;2022-11-09T09:16:11;93784.22;;;11.12;70.26
50093;BME280;35974;47.752;10.290;2022-11-09T09:18:37;93781.03;;;11.10;71.36
50093;BME280;35974;47.752;10.290;2022-11-09T09:21:06;93782.50;;;11.38;69.77
50093;BME280;35974;47.752;10.290;2022-11-09T09:23:32;93792.63;;;11.59;68.64
50093;BME280;35974;47.752;10.290;2022-11-09T09:25:59;93777.06;;;11.64;68.34
50093;BME280;35974;47.752;10.290;2022-11-09T09:28:26;93756.47;;;11.68;67.58
50093;BME280;35974;47.752;10.290;2022-11-09T09:30:52;93766.06;;;11.81;68.66
50093;BME280;35974;47.752;10.290;2022-11-09T09:33:20;93795.75;;;12.06;69.90
50093;BME280;35974;47.752;10.290;2022-11-09T09:35:50;93744.56;;;11.97;68.88
50093;BME280;35974;47.752;10.290;2022-11-09T09:38:28;93790.56;;;12.43;68.89
50093;BME280;35974;47.752;10.290;2022-11-09T09:41:01;93775.69;;;12.37;67.78
50093;BME280;35974;47.752;10.290;2022-11-09T09:43:45;93802.91;;;12.61;66.70
50093;BME280;35974;47.752;10.290;2022-11-09T09:48:50;93780.44;;;12.47;68.36
50093;BME280;35974;47.752;10.290;2022-11-09T09:51:31;93770.72;;;12.48;67.39
50093;BME280;35974;47.752;10.290;2022-11-09T09:54:14;93791.97;;;12.64;66.79
50093;BME280;35974;47.752;10.290;2022-11-09T09:56:44;93791.53;;;12.68;67.84
50093;BME280;35974;47.752;10.290;2022-11-09T10:01:44;93808.84;;;12.75;67.51
50093;BME280;35974;47.752;10.290;2022-11-09T10:04:23;93789.63;;;12.75;67.03
50093;BME280;35974;47.752;10.290;2022-11-09T10:07:21;93789.88;;;12.92;64.11
50093;BME280;35974;47.752;10.290;2022-11-09T10:10:27;93793.13;;;13.06;63.35
50093;BME280;35974;47.752;10.290;2022-11-09T10:13:11;93785.28;;;13.17;62.87
50093;BME280;35974;47.752;10.290;2022-11-09T10:18:43;93757.69;;;13.27;63.65
50093;BME280;35974;47.752;10.290;2022-11-09T10:27:34;93768.34;;;13.50;66.87
50093;BME280;35974;47.752;10.290;2022-11-09T10:30:12;93770.09;;;13.80;65.42
50093;BME280;35974;47.752;10.290;2022-11-09T10:32:42;93758.16;;;13.54;66.84
50093;BME280;35974;47.752;10.290;2022-11-09T10:35:21;93767.25;;;13.70;65.84
50093;BME280;35974;47.752;10.290;2022-11-09T10:37:51;93728.97;;;13.86;62.41
50093;BME280;35974;47.752;10.290;2022-11-09T10:42:57;93750.56;;;14.00;64.56
50093;BME280;35974;47.752;10.290;2022-11-09T10:47:54;93720.16;;;14.04;64.47
50093;BME280;35974;47.752;10.290;2022-11-09T10:50:44;93742.25;;;14.26;64.20
50093;BME280;35974;47.752;10.290;2022-11-09T10:53:24;93740.28;;;14.34;63.84
50093;BME280;35974;47.752;10.290;2022-11-09T10:55:53;93747.84;;;14.42;63.21
50093;BME280;35974;47.752;10.290;2022-11-09T10:58:36;93738.44;;;14.70;60.18
50093;BME280;35974;47.752;10.290;2022-11-09T11:01:14;93733.28;;;14.75;59.63
50093;BME280;35974;47.752;10.290;2022-11-09T11:03:48;93739.22;;;14.58;59.16
50093;BME280;35974;47.752;10.290;2022-11-09T11:06:26;93734.56;;;14.60;58.42
50093;BME280;35974;47.752;10.290;2022-11-09T11:11:31;93720.56;;;14.72;58.71
50093;BME280;35974;47.752;10.290;2022-11-09T11:16:37;93723.09;;;14.67;60.95
50093;BME280;35974;47.752;10.290;2022-11-09T11:19:04;93734.41;;;14.79;60.92
50093;BME280;35974;47.752;10.290;2022-11-09T11:21:33;93706.84;;;14.70;61.89
50093;BME280;35974;47.752;10.290;2022-11-09T11:24:16;93724.63;;;14.91;61.68
50093;BME280;35974;47.752;10.290;2022-11-09T11:30:25;93712.97;;;14.87;61.24
50093;BME280;35974;47.752;10.290;2022-11-09T11:32:25;93702.44;;;14.87;62.03
50093;BME280;35974;47.752;10.290;2022-11-09T11:34:52;93690.84;;;14.88;61.17
50093;BME280;35974;47.752;10.290;2022-11-09T11:40:09;93704.25;;;14.98;61.40
50093;BME280;35974;47.752;10.290;2022-11-09T11:51:18;93693.88;;;15.09;60.28
50093;BME280;35974;47.752;10.290;2022-11-09T11:54:19;93696.97;;;15.06;60.55
50093;BME280;35974;47.752;10.290;2022-11-09T12:00:14;93692.41;;;15.01;61.27
50093;BME280;35974;47.752;10.290;2022-11-09T12:10:52;93681.84;;;15.13;61.69
50093;BME280;35974;47.752;10.290;2022-11-09T12:16:06;93667.34;;;14.98;61.66
50093;BME280;35974;47.752;10.290;2022-11-09T12:30:08;93640.69;;;15.12;59.96
50093;BME280;35974;47.752;10.290;2022-11-09T12:35:25;93652.38;;;15.50;56.28
50093;BME280;35974;47.752;10.290;2022-11-09T12:38:04;93646.31;;;15.49;55.67
50093;BME280;35974;47.752;10.290;2022-11-09T12:40:45;93628.59;;;15.28;56.50
50093;BME280;35974;47.752;10.290;2022-11-09T12:45:57;93644.88;;;15.42;56.00
50093;BME280;35974;47.752;10.290;2022-11-09T12:48:28;93625.25;;;15.32;57.13
50093;BME280;35974;47.752;10.290;2022-11-09T12:51:00;93627.47;;;15.41;55.80
50093;BME280;35974;47.752;10.290;2022-11-09T12:53:34;93619.66;;;15.46;56.79
50093;BME280;35974;47.752;10.290;2022-11-09T12:58:36;93628.59;;;15.79;53.27
50093;BME280;35974;47.752;10.290;2022-11-09T13:01:07;93636.28;;;15.63;55.02
50093;BME280;35974;47.752;10.290;2022-11-09T13:03:38;93627.63;;;15.51;56.01
50093;BME280;35974;47.752;10.290;2022-11-09T13:08:54;93612.47;;;15.58;54.57
50093;BME280;35974;47.752;10.290;2022-11-09T13:16:53;93627.03;;;15.78;54.34
50093;BME280;35974;47.752;10.290;2022-11-09T13:22:00;93614.38;;;15.46;55.45
50093;BME280;35974;47.752;10.290;2022-11-09T13:27:01;93629.88;;;15.59;55.59
50093;BME280;35974;47.752;10.290;2022-11-09T13:29:48;93639.59;;;15.42;56.44
50093;BME280;35974;47.752;10.290;2022-11-09T13:32:24;93644.41;;;15.45;55.06
50093;BME280;35974;47.752;10.290;2022-11-09T13:35:01;93634.34;;;15.42;55.29
50093;BME280;35974;47.752;10.290;2022-11-09T13:43:23;93643.50;;;15.22;56.55
50093;BME280;35974;47.752;10.290;2022-11-09T13:45:56;93620.09;;;15.09;56.95
50093;BME280;35974;47.752;10.290;2022-11-09T13:51:03;93636.56;;;15.16;59.73
50093;BME280;35974;47.752;10.290;2022-11-09T13:56:22;93649.28;;;14.90;63.45
50093;BME280;35974;47.752;10.290;2022-11-09T14:01:50;93660.94;;;14.94;63.86
50093;BME280;35974;47.752;10.290;2022-11-09T14:04:34;93663.09;;;14.69;64.59
50093;BME280;35974;47.752;10.290;2022-11-09T14:12:47;93677.09;;;14.57;64.48
50093;BME280;35974;47.752;10.290;2022-11-09T14:15:27;93678.22;;;14.61;63.26
50093;BME280;35974;47.752;10.290;2022-11-09T14:23:40;93684.75;;;14.47;68.72
50093;BME280;35974;47.752;10.290;2022-11-09T14:26:08;93687.38;;;14.47;69.78
50093;BME280;35974;47.752;10.290;2022-11-09T14:28:35;93671.84;;;14.34;69.28
50093;BME280;35974;47.752;10.290;2022-11-09T14:31:02;93647.03;;;14.29;68.27
50093;BME280;35974;47.752;10.290;2022-11-09T14:33:31;93672.53;;;14.41;68.10
50093;BME280;35974;47.752;10.290;2022-11-09T14:36:01;93690.13;;;14.52;68.09
50093;BME280;35974;47.752;10.290;2022-11-09T14:38:34;93676.41;;;14.50;64.28
50093;BME280;35974;47.752;10.290;2022-11-09T14:41:02;93691.88;;;14.46;63.37
50093;BME280;35974;47.752;10.290;2022-11-09T14:43:35;93699.66;;;14.29;64.85
50093;BME280;35974;47.752;10.290;2022-11-09T14:46:06;93700.25;;;14.20;66.22
50093;BME280;35974;47.752;10.290;2022-11-09T14:48:39;93694.06;;;14.14;66.30
50093;BME280;35974;47.752;10.290;2022-11-09T14:51:16;93697.06;;;14.06;67.39
50093;BME280;35974;47.752;10.290;2022-11-09T14:53:43;93695.91;;;14.02;68.11
50093;BME280;35974;47.752;10.290;2022-11-09T14:56:13;93708.16;;;13.96;69.88
50093;BME280;35974;47.752;10.290;2022-11-09T14:58:42;93708.72;;;13.86;70.08
50093;BME280;35974;47.752;10.290;2022-11-09T15:06:32;93714.03;;;13.56;72.22
50093;BME280;35974;47.752;10.290;2022-11-09T15:09:05;93684.44;;;13.61;69.69